Terminal Aerodrome Forecast
Issued by NWS Central Illinois

Home | Current Version | Previous Version | Text Only | Print | Product List | Glossary On
Versions: 1 2 3 4 5 6 7 8 9 10 11 12 13 14 15 16 17 18 19 20 21 22 23
971
FTUS43 KILX 020532
TAFPIA
TAF
KPIA 020532Z 0206/0306 02006KT 5SM BR OVC007
     FM021500 02006KT P6SM OVC015
     FM021900 04007KT P6SM VCSH OVC025
     FM030000 VRB03KT P6SM BKN040
     FM030400 VRB03KT P6SM SCT120=

USA.gov is the U.S. government's official web portal to all federal, state and local government web resources and services.